Moro, OR

9:27 PM PDT on October 20, 2014 (GMT -0700)
Moro, Oregon | Change Station
CLOSE
Current Station
Personal Weather Station
Location: Moro, OR
Elevation: 1854 ft
Nearby Weather Stations

Elev 1854 ft 45.49 °N, 120.73 °W | Updated 8 minutes ago

Mostly Cloudy
Mostly Cloudy
49.8 °F
Feels Like 50 °F
N
2.2
Wind Variable Wind from SSE

Today
High -- | Low -- °F
--% Chance of Precip.
Yesterday
High -- | Low -- °F
Precip. -- in
7:26 AM 6:08 PM
Waning Crescent, 7% visible
Pressure 29.84 in
Visibility 10.0 miles
Clouds Few 5000 ft
Few 7000 ft
Windchill 50 °F
Dew Point 48 °F
Humidity 94%
Rainfall 0.11 in
Snow Depth Not available.
UV 0 out of 12
Pollen .40 out of 12
Air Quality Not available.
Flu Activity Sporadic
METAR KDLS 210353Z AUTO 00000KT 10SM FEW050 FEW070 11/09 A2984 RMK AO2 SLP104 T01060094

More Conditions Fewer Conditions

Pressure 29.84 in
Visibility 10.0 miles
Clouds Few 5000 ft
Few 7000 ft
Windchill 50 °F
Dew Point 48 °F
Humidity 94%
Rainfall 0.11 in
Snow Depth Not available.
UV 0 out of 12
Pollen .40 out of 12
Air Quality Not available.
Flu Activity Sporadic
METAR KDLS 210353Z AUTO 00000KT 10SM FEW050 FEW070 11/09 A2984 RMK AO2 SLP104 T01060094

More Conditions Fewer Conditions

10-Day Weather Forecast

Almanac

Astronomy

Oct. 20, 2014 Rise Set
Actual Time 7:26 AM PDT 6:08 PM PDT
Civil Twilight 6:55 AM PDT 6:38 PM PDT
Nautical Twilight 6:21 AM PDT 7:13 PM PDT
Astronomical Twilight 5:47 AM PDT 7:47 PM PDT
Moon 4:10 AM PDT (10/20) 4:41 PM PDT (10/20)
Length of Visible Light 11h 42m
Length of Day
10h 42m
Tomorrow will be 3m 1s shorter.
Waning Crescent, 7% of the Moon is Illuminated
Oct 21
Waning Crescent
Oct 23
New
Oct 30
First Quarter
Nov 6
Full
Nov 14
Last Quarter

Yesterday's Extremes

State Highs State Lows

Community

WunderPhotos

Upload Photos

1,763,608 photos uploaded!

Nearby

Snow Depth

Station Depth Elevation
Red Hill 0 in 4400 ft
Greenpoint 0 in 3200 ft
Mud Ridge 0 in 3800 ft
Clear Lake 1 in 3500 ft
Clackamas Lake 0 in 3400 ft

Earthquake Activity

City Distance Mag. Time & Date
No recent earthquake activity has been reported nearby.
Minimum magnitude displayed is 2.5.

Coastal Water Temperatures

Place Temperature
No Stations Reporting

Nearby Weather Stations